createdAt,value
2019-02-17T00:02:14.438Z,8.30
2019-02-17T00:04:45.605Z,8.30
2019-02-17T00:07:16.711Z,8.30
2019-02-17T00:09:47.684Z,8.30
2019-02-17T00:12:18.684Z,8.20
2019-02-17T00:14:49.594Z,8.20
2019-02-17T00:17:20.570Z,8.20
2019-02-17T00:19:51.458Z,8.20
2019-02-17T00:22:22.408Z,8.10
2019-02-17T00:24:53.415Z,8.10
2019-02-17T00:27:24.456Z,8.10
2019-02-17T00:29:55.480Z,8.10
2019-02-17T00:32:26.516Z,8.00
2019-02-17T00:34:57.378Z,8.00
2019-02-17T00:37:28.384Z,7.90
2019-02-17T00:39:59.316Z,7.90
2019-02-17T00:42:30.286Z,7.90
2019-02-17T00:45:01.141Z,7.90
2019-02-17T00:47:35.296Z,7.90
2019-02-17T00:50:07.047Z,7.80
2019-02-17T00:52:38.385Z,7.80
2019-02-17T00:55:09.404Z,7.70
2019-02-17T00:57:40.365Z,7.70
2019-02-17T01:00:11.515Z,7.70
2019-02-17T01:02:43.567Z,7.60
2019-02-17T01:05:14.550Z,7.60
2019-02-17T01:07:46.461Z,7.60
2019-02-17T01:10:17.347Z,7.70
2019-02-17T01:12:48.302Z,7.60
2019-02-17T01:15:19.199Z,7.60
2019-02-17T01:17:50.122Z,7.60
2019-02-17T01:20:20.987Z,7.60
2019-02-17T01:22:51.926Z,7.60
2019-02-17T01:25:22.858Z,7.50
2019-02-17T01:27:54.096Z,7.50
2019-02-17T01:30:25.095Z,7.50
2019-02-17T01:32:56.088Z,7.50
2019-02-17T01:35:26.990Z,7.40
2019-02-17T01:37:58.373Z,7.40
2019-02-17T01:40:29.393Z,7.40
2019-02-17T01:43:00.386Z,7.50
2019-02-17T01:45:31.358Z,7.50
2019-02-17T01:48:02.417Z,7.50
2019-02-17T01:50:33.859Z,7.60
2019-02-17T01:53:04.870Z,7.60
2019-02-17T01:55:35.893Z,7.60
2019-02-17T01:58:06.842Z,7.60
2019-02-17T02:00:37.783Z,7.60
2019-02-17T02:03:08.838Z,7.60
2019-02-17T02:05:39.737Z,7.70
2019-02-17T02:08:10.678Z,7.70
2019-02-17T02:10:42.636Z,7.70
2019-02-17T02:13:13.727Z,7.70
2019-02-17T02:15:44.776Z,7.70
2019-02-17T02:18:15.807Z,7.70
2019-02-17T02:20:46.692Z,7.70
2019-02-17T02:23:17.645Z,7.70
2019-02-17T02:25:48.505Z,7.70
2019-02-17T02:28:21.674Z,7.70
2019-02-17T02:30:52.665Z,7.70
2019-02-17T02:33:23.716Z,7.70
2019-02-17T02:35:54.736Z,7.70
2019-02-17T02:38:25.820Z,7.70
2019-02-17T02:40:56.697Z,7.80
2019-02-17T02:43:27.709Z,7.80
2019-02-17T02:45:58.563Z,7.80
2019-02-17T02:48:29.631Z,7.80
2019-02-17T02:51:00.534Z,7.90
2019-02-17T02:53:31.540Z,7.90
2019-02-17T02:56:02.494Z,7.90
2019-02-17T02:58:33.612Z,7.90
2019-02-17T03:01:06.253Z,8.00
2019-02-17T03:03:37.169Z,8.00
2019-02-17T03:06:26.241Z,8.00
2019-02-17T03:08:57.412Z,8.00
2019-02-17T03:11:28.333Z,8.00
2019-02-17T03:13:59.253Z,8.10
2019-02-17T03:16:30.103Z,8.10
2019-02-17T03:19:01.130Z,8.10
2019-02-17T03:21:32.113Z,8.10
2019-02-17T03:24:03.134Z,8.00
2019-02-17T03:26:34.125Z,8.00
2019-02-17T03:29:05.223Z,8.00
2019-02-17T03:31:36.081Z,8.00
2019-02-17T03:34:07.016Z,8.00
2019-02-17T03:36:37.860Z,8.00
2019-02-17T03:39:09.012Z,8.00
2019-02-17T03:41:39.915Z,8.00
2019-02-17T03:44:10.856Z,8.00
2019-02-17T03:46:41.728Z,8.00
2019-02-17T03:49:12.645Z,8.00
2019-02-17T03:51:43.629Z,8.00
2019-02-17T03:54:14.711Z,8.00
2019-02-17T03:56:45.730Z,8.10
2019-02-17T03:59:16.644Z,8.10
2019-02-17T04:01:47.511Z,8.10
2019-02-17T04:04:18.465Z,8.10
2019-02-17T04:06:49.321Z,8.00
2019-02-17T04:09:20.225Z,8.00
2019-02-17T04:11:51.202Z,8.00
2019-02-17T04:14:22.246Z,7.90
2019-02-17T04:16:53.261Z,7.90
2019-02-17T04:19:24.399Z,7.90
2019-02-17T04:21:55.424Z,7.90
2019-02-17T04:24:26.421Z,7.90
2019-02-17T04:26:58.072Z,7.90
2019-02-17T04:29:29.035Z,7.80
2019-02-17T04:32:01.022Z,7.80
2019-02-17T04:34:32.033Z,7.80
2019-02-17T04:37:02.997Z,7.80
2019-02-17T04:39:34.023Z,7.80
2019-02-17T04:42:04.911Z,7.80
2019-02-17T04:44:35.920Z,7.80
2019-02-17T04:47:06.827Z,7.70
2019-02-17T04:49:37.809Z,7.70
2019-02-17T04:52:08.882Z,7.70
2019-02-17T04:54:40.993Z,7.60
2019-02-17T04:57:11.983Z,7.60
2019-02-17T04:59:43.026Z,7.50
2019-02-17T05:02:13.998Z,7.60
2019-02-17T05:04:44.905Z,7.50
2019-02-17T05:07:15.817Z,7.50
2019-02-17T05:09:46.773Z,7.50
2019-02-17T05:12:17.610Z,7.50
2019-02-17T05:14:48.507Z,7.50
2019-02-17T05:17:19.393Z,7.50
2019-02-17T05:19:50.455Z,7.60
2019-02-17T05:22:21.398Z,7.50
2019-02-17T05:24:52.816Z,7.50
2019-02-17T05:27:23.833Z,7.50
2019-02-17T05:29:54.775Z,7.60
2019-02-17T05:32:25.665Z,7.60
2019-02-17T05:34:58.970Z,7.60
2019-02-17T05:37:29.123Z,7.60
2019-02-17T05:40:00.068Z,7.60
2019-02-17T05:42:31.033Z,7.70
2019-02-17T05:45:02.024Z,7.60
2019-02-17T05:47:32.919Z,7.70
2019-02-17T05:50:05.202Z,7.60
2019-02-17T05:52:36.127Z,7.60
2019-02-17T05:55:07.716Z,7.60
2019-02-17T05:57:38.563Z,7.60
2019-02-17T06:00:11.013Z,7.60
2019-02-17T06:02:42.031Z,7.60
2019-02-17T06:05:13.030Z,7.60
2019-02-17T06:07:43.977Z,7.60
2019-02-17T06:10:14.952Z,7.60
2019-02-17T06:12:45.812Z,7.60
2019-02-17T06:15:16.728Z,7.60
2019-02-17T06:17:47.663Z,7.60
2019-02-17T06:20:18.737Z,7.60
2019-02-17T06:22:49.720Z,7.60
2019-02-17T06:25:20.826Z,7.50
2019-02-17T06:27:51.830Z,7.50
2019-02-17T06:30:22.871Z,7.50
2019-02-17T06:32:53.724Z,7.60
2019-02-17T06:35:24.633Z,7.50
2019-02-17T06:37:55.594Z,7.50
2019-02-17T06:40:26.493Z,7.50
2019-02-17T06:42:57.417Z,7.50
2019-02-17T06:45:28.399Z,7.50
2019-02-17T06:47:59.392Z,7.50
2019-02-17T06:50:32.713Z,7.50
2019-02-17T06:53:03.046Z,7.50
2019-02-17T06:55:44.939Z,7.60
2019-02-17T06:58:15.803Z,7.60
2019-02-17T07:00:49.293Z,7.60
2019-02-17T07:03:20.136Z,7.60
2019-02-17T07:06:14.153Z,7.70
2019-02-17T07:08:45.071Z,7.60
2019-02-17T07:11:16.067Z,7.60
2019-02-17T07:13:46.961Z,7.60
2019-02-17T07:16:19.424Z,7.70
2019-02-17T07:18:50.326Z,7.70
2019-02-17T07:21:21.236Z,7.70
2019-02-17T07:23:52.103Z,7.70
2019-02-17T07:26:23.302Z,7.80
2019-02-17T07:28:54.365Z,7.80
2019-02-17T07:31:34.584Z,7.80
2019-02-17T07:33:58.044Z,7.90
2019-02-17T07:36:28.943Z,7.90
2019-02-17T07:38:59.925Z,7.90
2019-02-17T07:41:30.961Z,7.90
2019-02-17T07:44:01.959Z,7.90
2019-02-17T07:46:33.145Z,8.00
2019-02-17T07:49:04.416Z,8.00
2019-02-17T07:51:35.345Z,8.00
2019-02-17T07:54:06.253Z,8.00
2019-02-17T07:56:37.244Z,8.10
2019-02-17T07:59:08.226Z,8.10
2019-02-17T08:01:45.265Z,8.20
2019-02-17T08:04:11.965Z,8.20
2019-02-17T08:06:43.049Z,8.20
2019-02-17T08:09:14.424Z,8.30
2019-02-17T08:11:45.414Z,8.40
2019-02-17T08:14:16.890Z,8.40
2019-02-17T08:16:47.987Z,8.40
2019-02-17T08:19:18.961Z,8.50
2019-02-17T08:21:50.016Z,8.50
2019-02-17T08:24:20.998Z,8.60
2019-02-17T08:26:51.992Z,8.60
2019-02-17T08:29:22.943Z,8.60
2019-02-17T08:31:56.096Z,8.60
2019-02-17T08:34:26.450Z,8.70
2019-02-17T08:37:14.206Z,8.70
2019-02-17T08:40:00.838Z,8.70
2019-02-17T08:42:32.005Z,8.80
2019-02-17T08:45:03.047Z,8.80
2019-02-17T08:47:34.199Z,8.90
2019-02-17T08:50:05.701Z,9.00
2019-02-17T08:52:37.162Z,9.00
2019-02-17T08:55:09.516Z,9.10
2019-02-17T08:57:40.800Z,9.10
2019-02-17T09:00:13.017Z,9.10
2019-02-17T09:02:44.607Z,9.20
2019-02-17T09:05:16.249Z,9.10
2019-02-17T09:07:47.449Z,9.20
2019-02-17T09:10:18.597Z,9.30
2019-02-17T09:12:49.796Z,9.30
2019-02-17T09:15:20.855Z,9.40
2019-02-17T09:17:51.950Z,9.50
2019-02-17T09:20:22.992Z,9.60
2019-02-17T09:22:55.002Z,9.70
2019-02-17T09:25:26.003Z,9.80
2019-02-17T09:27:57.259Z,9.90
2019-02-17T09:33:20.206Z,10.00
2019-02-17T09:35:51.398Z,10.10
2019-02-17T09:38:22.423Z,10.20
2019-02-17T09:40:53.359Z,10.10
2019-02-17T09:43:24.428Z,10.20
2019-02-17T09:45:55.413Z,10.30
2019-02-17T09:48:27.119Z,10.20
2019-02-17T09:50:58.732Z,10.20
2019-02-17T09:53:30.820Z,10.30
2019-02-17T09:56:01.854Z,10.50
2019-02-17T09:58:32.867Z,10.60
2019-02-17T10:01:04.021Z,10.60
2019-02-17T10:03:35.222Z,10.60
2019-02-17T10:06:06.327Z,10.60
2019-02-17T10:08:37.516Z,10.80
2019-02-17T10:11:08.695Z,10.70
2019-02-17T10:13:42.288Z,10.70
2019-02-17T10:16:13.299Z,10.70
2019-02-17T10:18:44.299Z,10.70
2019-02-17T10:21:15.367Z,10.70
2019-02-17T10:23:46.337Z,10.80
2019-02-17T10:26:17.767Z,10.80
2019-02-17T10:28:50.887Z,10.90
2019-02-17T10:31:25.202Z,10.90
2019-02-17T10:33:56.601Z,10.80
2019-02-17T10:36:28.414Z,10.70
2019-02-17T10:39:01.604Z,10.60
2019-02-17T10:41:35.214Z,10.50
2019-02-17T10:44:06.763Z,10.50
2019-02-17T10:46:37.964Z,10.50
2019-02-17T10:49:09.095Z,10.40
2019-02-17T10:51:41.065Z,10.50
2019-02-17T10:54:12.738Z,10.50
2019-02-17T10:56:43.752Z,10.40
2019-02-17T10:59:14.936Z,10.30
2019-02-17T11:01:45.814Z,10.40
2019-02-17T11:04:17.063Z,10.40
2019-02-17T11:06:48.107Z,10.30
2019-02-17T11:09:23.103Z,10.30
2019-02-17T11:11:54.663Z,10.30
2019-02-17T11:14:25.878Z,10.30
2019-02-17T11:16:57.130Z,10.20
2019-02-17T11:19:28.197Z,10.40
2019-02-17T11:21:59.242Z,10.60
2019-02-17T11:24:30.333Z,10.60
2019-02-17T11:27:01.248Z,10.60
2019-02-17T11:29:32.483Z,10.50
2019-02-17T11:32:03.687Z,10.50
2019-02-17T11:34:34.873Z,10.50
2019-02-17T11:37:08.903Z,10.50
2019-02-17T11:39:39.920Z,10.70
2019-02-17T11:42:10.924Z,10.90
2019-02-17T11:44:42.291Z,11.00
2019-02-17T11:47:13.605Z,10.90
2019-02-17T11:49:45.014Z,11.00
2019-02-17T11:52:16.210Z,11.00
2019-02-17T11:54:48.012Z,10.90
2019-02-17T11:57:20.107Z,10.90
2019-02-17T11:59:51.179Z,10.90
2019-02-17T12:02:25.318Z,10.80
2019-02-17T12:04:58.678Z,10.80
2019-02-17T12:07:29.848Z,10.70
2019-02-17T12:10:01.551Z,10.60
2019-02-17T12:12:32.722Z,10.70
2019-02-17T12:15:04.286Z,10.80
2019-02-17T12:17:37.066Z,10.80
2019-02-17T12:20:41.677Z,11.10
2019-02-17T12:23:17.589Z,11.30
2019-02-17T12:25:55.898Z,11.20
2019-02-17T12:28:31.018Z,11.00
2019-02-17T12:31:02.119Z,11.00
2019-02-17T12:33:33.533Z,10.80
2019-02-17T12:36:05.265Z,10.80
2019-02-17T12:38:36.209Z,10.70
2019-02-17T12:41:07.896Z,10.60
2019-02-17T12:43:39.123Z,10.40
2019-02-17T12:46:10.215Z,10.30
2019-02-17T12:48:41.277Z,10.30
2019-02-17T12:51:12.270Z,10.20
2019-02-17T12:53:43.318Z,10.10
2019-02-17T12:56:14.352Z,10.00
2019-02-17T12:58:46.057Z,10.00
2019-02-17T13:01:17.265Z,10.00
2019-02-17T13:03:48.403Z,10.00
2019-02-17T13:06:19.670Z,10.00
2019-02-17T13:08:50.726Z,10.00
2019-02-17T13:11:21.847Z,10.00
2019-02-17T13:13:55.566Z,10.00
2019-02-17T13:16:26.464Z,9.90
2019-02-17T13:18:57.400Z,9.90
2019-02-17T13:21:29.246Z,9.80
2019-02-17T13:24:03.285Z,9.80
2019-02-17T13:26:35.447Z,9.80
2019-02-17T13:29:06.477Z,9.80
2019-02-17T13:31:37.549Z,9.90
2019-02-17T13:34:08.967Z,9.90
2019-02-17T13:36:40.891Z,9.90
2019-02-17T13:39:14.448Z,10.00
2019-02-17T13:41:46.495Z,10.00
2019-02-17T13:44:17.688Z,10.10
2019-02-17T13:46:48.765Z,10.00
2019-02-17T13:49:19.710Z,9.90
2019-02-17T13:51:50.738Z,9.80
2019-02-17T13:54:21.687Z,9.80
2019-02-17T13:56:52.690Z,9.70
2019-02-17T13:59:23.702Z,9.60
2019-02-17T14:01:54.704Z,9.60
2019-02-17T14:04:25.928Z,9.50
2019-02-17T14:06:58.524Z,9.50
2019-02-17T14:09:29.461Z,9.50
2019-02-17T14:12:00.471Z,9.40
2019-02-17T14:14:31.519Z,9.50
2019-02-17T14:17:02.527Z,9.40
2019-02-17T14:19:33.492Z,9.40
2019-02-17T14:22:04.624Z,9.40
2019-02-17T14:24:35.556Z,9.40
2019-02-17T14:27:06.551Z,9.40
2019-02-17T14:29:37.595Z,9.40
2019-02-17T14:32:08.682Z,9.40
2019-02-17T14:34:39.838Z,9.30
2019-02-17T14:37:29.983Z,9.30
2019-02-17T14:40:13.943Z,9.20
2019-02-17T14:42:45.113Z,9.20
2019-02-17T14:45:16.175Z,9.20
2019-02-17T14:47:47.362Z,9.10
2019-02-17T14:50:38.569Z,9.20
2019-02-17T14:53:13.425Z,9.20
2019-02-17T14:55:46.399Z,9.20
2019-02-17T14:58:17.565Z,9.10
2019-02-17T15:00:48.901Z,9.10
2019-02-17T15:03:20.369Z,9.10
2019-02-17T15:05:53.634Z,9.10
2019-02-17T15:08:24.137Z,9.10
2019-02-17T15:10:55.068Z,9.10
2019-02-17T15:13:26.227Z,9.10
2019-02-17T15:15:57.423Z,9.00
2019-02-17T15:18:28.674Z,9.00
2019-02-17T15:20:59.684Z,8.90
2019-02-17T15:23:30.751Z,8.90
2019-02-17T15:26:01.808Z,8.90
2019-02-17T15:28:32.797Z,8.80
2019-02-17T15:31:03.965Z,8.70
2019-02-17T15:33:34.917Z,8.70
2019-02-17T15:36:06.256Z,8.70
2019-02-17T15:38:37.301Z,8.60
2019-02-17T15:41:09.060Z,8.50
2019-02-17T15:43:40.515Z,8.40
2019-02-17T15:46:13.213Z,8.40
2019-02-17T15:48:44.343Z,8.30
2019-02-17T15:51:15.184Z,8.20
2019-02-17T15:53:46.096Z,8.20
2019-02-17T15:56:17.219Z,8.10
2019-02-17T15:58:47.977Z,8.10
2019-02-17T16:01:18.850Z,8.10
2019-02-17T16:03:50.327Z,8.00
2019-02-17T16:06:21.274Z,8.00
2019-02-17T16:08:52.472Z,8.00
2019-02-17T16:11:23.247Z,7.90
2019-02-17T16:13:54.183Z,7.90
2019-02-17T16:16:32.005Z,7.90
2019-02-17T16:19:15.550Z,7.90
2019-02-17T16:25:40.461Z,7.80
2019-02-17T16:29:07.821Z,7.80
2019-02-17T16:36:09.020Z,7.80
2019-02-17T16:39:18.827Z,7.80
2019-02-17T16:44:46.728Z,7.80
2019-02-17T16:47:20.813Z,7.90
2019-02-17T16:50:00.313Z,7.90
2019-02-17T16:52:39.665Z,7.90
2019-02-17T16:55:14.312Z,8.00
2019-02-17T16:57:46.079Z,8.00
2019-02-17T17:00:23.513Z,7.90
2019-02-17T17:02:56.097Z,7.90
2019-02-17T17:05:27.904Z,7.90
2019-02-17T17:08:00.979Z,8.00
2019-02-17T17:10:34.327Z,7.90
2019-02-17T17:13:06.845Z,7.90
2019-02-17T17:15:40.965Z,7.90
2019-02-17T17:18:13.711Z,8.00
2019-02-17T17:20:46.732Z,7.90
2019-02-17T17:23:20.630Z,8.00
2019-02-17T17:26:20.976Z,8.00
2019-02-17T17:28:53.207Z,8.00
2019-02-17T17:31:25.915Z,7.90
2019-02-17T17:33:58.097Z,7.90
2019-02-17T17:36:30.635Z,7.90
2019-02-17T17:39:02.252Z,7.90
2019-02-17T17:41:35.479Z,7.90
2019-02-17T17:44:09.123Z,7.90
2019-02-17T17:46:43.126Z,7.90
2019-02-17T17:49:19.233Z,7.90
2019-02-17T17:52:15.431Z,8.00
2019-02-17T17:54:47.436Z,8.00
2019-02-17T17:57:20.011Z,8.00
2019-02-17T17:59:52.137Z,8.00
2019-02-17T18:02:23.814Z,8.00
2019-02-17T18:04:55.955Z,7.90
2019-02-17T18:07:27.856Z,7.90
2019-02-17T18:10:00.899Z,7.80
2019-02-17T18:12:33.482Z,7.80
2019-02-17T18:15:05.181Z,7.70
2019-02-17T18:17:37.304Z,7.60
2019-02-17T18:20:10.664Z,7.50
2019-02-17T18:22:44.014Z,7.50
2019-02-17T18:25:15.551Z,7.30
2019-02-17T18:27:46.844Z,7.30
2019-02-17T18:30:18.145Z,7.30
2019-02-17T18:32:49.698Z,7.20
2019-02-17T18:35:21.569Z,7.20
2019-02-17T18:37:53.110Z,7.10
2019-02-17T18:40:25.302Z,7.10
2019-02-17T18:42:56.963Z,7.00
2019-02-17T18:45:27.979Z,7.10
2019-02-17T18:48:00.903Z,7.00
2019-02-17T18:50:32.400Z,7.00
2019-02-17T18:53:03.628Z,7.00
2019-02-17T18:55:34.683Z,6.90
2019-02-17T18:58:05.993Z,6.80
2019-02-17T19:00:37.305Z,6.70
2019-02-17T19:03:09.414Z,6.60
2019-02-17T19:05:40.732Z,6.50
2019-02-17T19:08:12.116Z,6.40
2019-02-17T19:10:43.436Z,6.30
2019-02-17T19:13:14.595Z,6.30
2019-02-17T19:15:45.878Z,6.30
2019-02-17T19:18:17.095Z,6.30
2019-02-17T19:20:48.410Z,6.20
2019-02-17T19:23:19.589Z,6.20
2019-02-17T19:25:50.762Z,6.10
2019-02-17T19:28:21.963Z,6.10
2019-02-17T19:30:53.047Z,6.00
2019-02-17T19:33:24.233Z,6.00
2019-02-17T19:35:56.561Z,6.00
2019-02-17T19:38:27.549Z,6.00
2019-02-17T19:40:58.549Z,6.00
2019-02-17T19:43:32.352Z,6.00
2019-02-17T19:46:03.585Z,6.00
2019-02-17T19:48:35.866Z,6.00
2019-02-17T19:51:07.054Z,5.90
2019-02-17T19:53:37.996Z,5.90
2019-02-17T19:56:09.182Z,5.90
2019-02-17T19:58:40.369Z,5.80
2019-02-17T20:01:11.548Z,5.80
2019-02-17T20:04:04.381Z,5.70
2019-02-17T20:06:35.553Z,5.70
2019-02-17T20:09:16.073Z,5.60
2019-02-17T20:11:47.297Z,5.50
2019-02-17T20:14:19.751Z,5.60
2019-02-17T20:16:51.099Z,5.60
2019-02-17T20:19:22.373Z,5.60
2019-02-17T20:21:53.636Z,5.50
2019-02-17T20:24:25.873Z,5.40
2019-02-17T20:32:42.089Z,5.40
2019-02-17T20:35:13.774Z,5.40
2019-02-17T20:37:45.230Z,5.40
2019-02-17T20:40:20.038Z,5.30
2019-02-17T20:42:54.685Z,5.40
2019-02-17T20:45:27.317Z,5.40
2019-02-17T20:47:58.461Z,5.40
2019-02-17T20:50:29.584Z,5.40
2019-02-17T20:53:04.869Z,5.50
2019-02-17T20:55:36.682Z,5.60
2019-02-17T20:58:08.334Z,5.60
2019-02-17T21:00:40.657Z,5.60
2019-02-17T21:03:14.043Z,5.60
2019-02-17T21:05:45.285Z,5.70
2019-02-17T21:08:16.430Z,5.80
2019-02-17T21:10:48.496Z,5.90
2019-02-17T21:13:20.577Z,5.90
2019-02-17T21:15:51.869Z,6.00
2019-02-17T21:18:23.138Z,6.00
2019-02-17T21:20:54.367Z,6.00
2019-02-17T21:23:25.494Z,6.10
2019-02-17T21:25:56.742Z,6.20
2019-02-17T21:28:28.163Z,6.20
2019-02-17T21:30:59.239Z,6.30
2019-02-17T21:33:30.488Z,6.30
2019-02-17T21:36:03.096Z,6.30
2019-02-17T21:38:35.073Z,6.30
2019-02-17T21:41:09.606Z,6.30
2019-02-17T21:43:41.538Z,6.30
2019-02-17T21:46:12.696Z,6.30
2019-02-17T21:48:43.745Z,6.30
2019-02-17T21:51:33.222Z,6.30
2019-02-17T21:54:04.372Z,6.30
2019-02-17T21:56:35.282Z,6.20
2019-02-17T21:59:07.704Z,6.20
2019-02-17T22:01:40.648Z,6.30
2019-02-17T22:04:12.393Z,6.30
2019-02-17T22:06:43.902Z,6.30
2019-02-17T22:09:15.083Z,6.30
2019-02-17T22:11:46.171Z,6.30
2019-02-17T22:14:17.658Z,6.30
2019-02-17T22:16:48.659Z,6.30
2019-02-17T22:19:19.697Z,6.30
2019-02-17T22:21:50.906Z,6.30
2019-02-17T22:24:22.266Z,6.30
2019-02-17T22:26:53.545Z,6.20
2019-02-17T22:29:24.577Z,6.20
2019-02-17T22:31:55.512Z,6.20
2019-02-17T22:34:26.438Z,6.10
2019-02-17T22:36:57.453Z,6.00
2019-02-17T22:39:28.452Z,5.90
2019-02-17T22:41:59.756Z,5.80
2019-02-17T22:44:30.851Z,5.70
2019-02-17T22:47:01.939Z,5.70
2019-02-17T22:49:33.011Z,5.70
2019-02-17T22:52:04.197Z,5.70
2019-02-17T22:54:36.420Z,5.70
2019-02-17T22:57:07.471Z,5.70
2019-02-17T22:59:38.411Z,5.70
2019-02-17T23:02:11.842Z,5.70
2019-02-17T23:04:42.837Z,5.70
2019-02-17T23:07:13.855Z,5.70
2019-02-17T23:09:44.928Z,5.60
2019-02-17T23:12:16.264Z,5.60
2019-02-17T23:14:47.499Z,5.50
2019-02-17T23:17:18.618Z,5.50
2019-02-17T23:19:49.897Z,5.40
2019-02-17T23:22:20.811Z,5.40
2019-02-17T23:24:52.004Z,5.40
2019-02-17T23:27:22.986Z,5.30
2019-02-17T23:29:54.083Z,5.20
2019-02-17T23:32:25.035Z,5.10
2019-02-17T23:34:56.094Z,5.10
2019-02-17T23:37:27.034Z,5.00
2019-02-17T23:39:57.984Z,5.00
2019-02-17T23:42:28.997Z,5.00
2019-02-17T23:45:00.104Z,5.00
2019-02-17T23:47:32.669Z,5.00
2019-02-17T23:50:03.722Z,5.00
2019-02-17T23:52:34.738Z,5.00
2019-02-17T23:55:06.136Z,5.00
2019-02-17T23:57:37.056Z,5.00
